createdAt,value
2022-11-14T00:00:24.994Z,17.03
2022-11-14T00:04:29.678Z,14.70
2022-11-14T00:08:35.124Z,15.00
2022-11-14T00:12:38.438Z,16.70
2022-11-14T00:16:41.729Z,16.50
2022-11-14T00:20:45.003Z,16.33
2022-11-14T00:24:49.778Z,18.30
2022-11-14T00:28:53.134Z,17.27
2022-11-14T00:32:56.423Z,16.73
2022-11-14T00:36:59.732Z,16.57
2022-11-14T00:41:04.571Z,15.67
2022-11-14T00:45:08.586Z,15.47
2022-11-14T00:49:12.133Z,15.70
2022-11-14T00:53:15.603Z,14.70
2022-11-14T00:57:20.333Z,13.67
2022-11-14T01:01:23.793Z,13.47
2022-11-14T01:05:27.661Z,14.00
2022-11-14T01:09:31.179Z,13.47
2022-11-14T01:13:35.894Z,12.90
2022-11-14T01:17:39.364Z,14.20
2022-11-14T01:21:44.085Z,15.00
2022-11-14T01:25:47.713Z,14.40
2022-11-14T01:29:52.429Z,15.33
2022-11-14T01:33:56.169Z,15.80
2022-11-14T01:37:59.473Z,15.80
2022-11-14T01:42:03.267Z,15.03
2022-11-14T01:46:11.112Z,17.80
2022-11-14T01:50:14.743Z,15.13
2022-11-14T01:54:22.274Z,14.67
2022-11-14T01:58:27.097Z,14.67
2022-11-14T02:02:32.718Z,14.57
2022-11-14T02:06:37.049Z,13.40
2022-11-14T02:10:40.325Z,13.93
2022-11-14T02:14:46.500Z,14.70
2022-11-14T02:18:51.224Z,14.50
2022-11-14T02:22:56.414Z,15.27
2022-11-14T02:27:00.310Z,15.90
2022-11-14T02:31:03.646Z,15.10
2022-11-14T02:35:07.424Z,15.20
2022-11-14T02:39:12.104Z,16.50
2022-11-14T02:43:15.528Z,14.67
2022-11-14T02:47:18.827Z,13.90
2022-11-14T02:51:22.086Z,14.87
2022-11-14T02:55:26.796Z,16.40
2022-11-14T02:59:30.139Z,14.90
2022-11-14T03:03:33.501Z,12.90
2022-11-14T03:07:36.825Z,16.10
2022-11-14T03:11:41.814Z,14.00
2022-11-14T03:15:45.160Z,15.80
2022-11-14T03:19:48.552Z,14.87
2022-11-14T03:23:52.967Z,14.80
2022-11-14T03:27:57.652Z,15.90
2022-11-14T03:32:01.002Z,15.50
2022-11-14T03:36:05.146Z,14.90
2022-11-14T03:40:10.095Z,14.50
2022-11-14T03:44:14.873Z,15.10
2022-11-14T03:48:18.199Z,15.03
2022-11-14T03:52:21.686Z,13.90
2022-11-14T03:56:25.195Z,14.90
2022-11-14T04:00:30.179Z,14.47
2022-11-14T04:04:33.613Z,14.63
2022-11-14T04:08:37.062Z,15.40
2022-11-14T04:12:40.422Z,15.53
2022-11-14T04:16:45.083Z,15.60
2022-11-14T04:20:48.401Z,18.20
2022-11-14T04:24:51.659Z,16.50
2022-11-14T04:28:55.369Z,13.97
2022-11-14T04:33:00.079Z,15.00
2022-11-14T04:37:03.387Z,14.80
2022-11-14T04:41:06.915Z,16.40
2022-11-14T04:45:11.180Z,17.20
2022-11-14T04:49:15.880Z,15.03
2022-11-14T04:53:19.172Z,14.87
2022-11-14T04:57:22.581Z,14.10
2022-11-14T05:01:25.898Z,17.10
2022-11-14T05:05:30.680Z,16.50
2022-11-14T05:09:34.007Z,15.40
2022-11-14T05:13:37.374Z,15.73
2022-11-14T05:17:40.782Z,16.17
2022-11-14T05:21:45.495Z,15.90
2022-11-14T05:25:59.368Z,16.40
2022-11-14T05:30:02.796Z,16.80
2022-11-14T05:34:06.191Z,15.00
2022-11-14T05:38:10.872Z,16.83
2022-11-14T05:42:14.162Z,15.47
2022-11-14T05:46:18.667Z,16.00
2022-11-14T05:50:22.124Z,17.40
2022-11-14T05:54:26.975Z,15.30
2022-11-14T05:58:31.677Z,15.07
2022-11-14T06:02:35.264Z,14.30
2022-11-14T06:06:38.594Z,15.33
2022-11-14T06:10:43.376Z,16.40
2022-11-14T06:14:46.625Z,15.47
2022-11-14T06:18:49.964Z,14.77
2022-11-14T06:22:56.145Z,16.17
2022-11-14T06:27:03.085Z,17.80
2022-11-14T06:31:07.950Z,16.07
2022-11-14T06:35:12.174Z,16.87
2022-11-14T06:39:15.966Z,17.63
2022-11-14T06:43:20.713Z,18.03
2022-11-14T06:47:24.058Z,16.60
2022-11-14T06:51:27.371Z,17.23
2022-11-14T06:55:45.725Z,19.47
2022-11-14T06:59:50.460Z,18.63
2022-11-14T07:03:54.133Z,18.33
2022-11-14T07:07:59.460Z,18.03
2022-11-14T07:12:03.089Z,17.77
2022-11-14T07:16:08.648Z,18.83
2022-11-14T07:20:12.688Z,16.10
2022-11-14T07:24:16.248Z,27.20
2022-11-14T07:28:20.987Z,28.00
2022-11-14T07:32:25.707Z,30.20
2022-11-14T07:36:29.087Z,25.43
2022-11-14T07:40:32.337Z,21.67
2022-11-14T07:44:35.773Z,18.70
2022-11-14T07:48:40.838Z,20.97
2022-11-14T07:52:44.117Z,19.93
2022-11-14T07:56:47.532Z,21.27
2022-11-14T08:00:51.007Z,18.70
2022-11-14T08:04:55.823Z,19.50
2022-11-14T08:08:59.164Z,19.27
2022-11-14T08:13:30.155Z,20.73
2022-11-14T08:17:27.205Z,20.27
2022-11-14T08:21:31.992Z,19.90
2022-11-14T08:25:35.469Z,19.07
2022-11-14T08:29:38.990Z,20.07
2022-11-14T08:33:42.267Z,20.60
2022-11-14T08:37:46.901Z,19.53
2022-11-14T08:41:50.245Z,18.67
2022-11-14T08:45:53.622Z,17.90
2022-11-14T08:49:56.924Z,20.37
2022-11-14T08:54:01.601Z,20.43
2022-11-14T08:58:04.877Z,20.70
2022-11-14T09:02:08.182Z,18.43
2022-11-14T09:06:11.478Z,21.67
2022-11-14T09:10:16.466Z,19.43
2022-11-14T09:14:20.139Z,20.60
2022-11-14T09:18:23.399Z,20.87
2022-11-14T09:22:26.763Z,20.37
2022-11-14T09:26:32.030Z,20.80
2022-11-14T09:30:36.328Z,20.73
2022-11-14T09:34:43.141Z,20.60
2022-11-14T09:38:46.817Z,22.70
2022-11-14T09:43:18.109Z,22.77
2022-11-14T09:47:24.659Z,22.77
2022-11-14T09:51:32.547Z,20.77
2022-11-14T09:55:37.388Z,22.67
2022-11-14T09:59:42.363Z,21.20
2022-11-14T10:03:51.300Z,20.40
2022-11-14T10:08:13.761Z,20.07
2022-11-14T10:12:23.356Z,19.00
2022-11-14T10:16:42.130Z,18.27
2022-11-14T10:20:54.318Z,20.93
2022-11-14T10:25:17.931Z,18.63
2022-11-14T10:29:47.284Z,19.70
2022-11-14T10:34:00.611Z,22.03
2022-11-14T10:38:10.589Z,20.83
2022-11-14T10:42:17.946Z,21.13
2022-11-14T10:46:25.920Z,21.63
2022-11-14T10:50:41.710Z,20.60
2022-11-14T10:54:51.556Z,19.87
2022-11-14T10:58:54.884Z,20.50
2022-11-14T11:02:59.465Z,22.07
2022-11-14T11:07:40.804Z,18.77
2022-11-14T11:11:57.641Z,18.23
2022-11-14T11:16:03.036Z,17.23
2022-11-14T11:20:32.946Z,16.33
2022-11-14T11:24:38.968Z,20.03
2022-11-14T11:28:42.534Z,16.97
2022-11-14T11:32:46.151Z,16.20
2022-11-14T11:36:55.165Z,18.07
2022-11-14T11:41:15.553Z,20.27
2022-11-14T11:45:30.736Z,19.83
2022-11-14T11:49:41.731Z,20.10
2022-11-14T11:53:49.372Z,21.07
2022-11-14T11:58:03.638Z,19.73
2022-11-14T12:02:23.473Z,19.17
2022-11-14T12:06:30.719Z,18.67
2022-11-14T12:10:40.973Z,17.50
2022-11-14T12:15:10.711Z,16.20
2022-11-14T12:19:52.765Z,17.47
2022-11-14T12:24:37.795Z,17.20
2022-11-14T12:28:59.533Z,15.80
2022-11-14T12:33:09.890Z,18.20
2022-11-14T12:37:18.151Z,17.53
2022-11-14T12:41:26.450Z,18.50
2022-11-14T12:46:01.194Z,17.30
2022-11-14T12:50:36.481Z,16.13
2022-11-14T12:54:47.664Z,16.23
2022-11-14T12:59:14.591Z,16.80
2022-11-14T13:03:34.281Z,16.77
2022-11-14T13:07:47.257Z,14.80
2022-11-14T13:12:07.911Z,14.40
2022-11-14T13:16:38.695Z,16.27
2022-11-14T13:20:59.371Z,14.97
2022-11-14T13:25:21.082Z,15.90
2022-11-14T13:29:58.231Z,16.73
2022-11-14T13:34:02.421Z,15.83
2022-11-14T13:38:50.740Z,15.73
2022-11-14T13:43:06.369Z,16.33
2022-11-14T13:47:26.776Z,16.70
2022-11-14T13:51:43.450Z,17.00
2022-11-14T13:56:00.338Z,17.87
2022-11-14T14:00:19.684Z,18.17
2022-11-14T14:04:40.281Z,17.00
2022-11-14T14:09:02.163Z,16.17
2022-11-14T14:13:19.759Z,15.20
2022-11-14T14:17:32.112Z,15.60
2022-11-14T14:21:43.890Z,14.43
2022-11-14T14:25:55.666Z,16.63
2022-11-14T14:30:12.405Z,15.00
2022-11-14T14:34:29.530Z,16.77
2022-11-14T14:38:33.216Z,14.87
2022-11-14T14:42:41.145Z,15.80
2022-11-14T14:46:44.493Z,16.43
2022-11-14T14:50:59.327Z,17.90
2022-11-14T14:55:07.595Z,15.53
2022-11-14T14:59:18.712Z,16.63
2022-11-14T15:03:23.903Z,16.70
2022-11-14T15:07:32.876Z,18.30
2022-11-14T15:11:55.400Z,15.83
2022-11-14T15:16:13.124Z,15.87
2022-11-14T15:20:27.109Z,18.70
2022-11-14T15:24:32.369Z,18.63
2022-11-14T15:28:35.710Z,17.80
2022-11-14T15:32:38.995Z,18.13
2022-11-14T15:37:08.180Z,21.20
2022-11-14T15:41:19.684Z,33.30
2022-11-14T15:45:24.218Z,29.43
2022-11-14T15:49:28.324Z,36.47
2022-11-14T15:53:33.619Z,37.33
2022-11-14T15:57:39.325Z,37.07
2022-11-14T16:01:44.467Z,39.70
2022-11-14T16:05:47.875Z,39.10
2022-11-14T16:09:52.190Z,35.57
2022-11-14T16:13:56.990Z,33.47
2022-11-14T16:18:00.373Z,36.20
2022-11-14T16:22:06.509Z,36.53
2022-11-14T16:26:09.897Z,40.20
2022-11-14T16:30:16.517Z,36.57
2022-11-14T16:34:21.785Z,38.20
2022-11-14T16:38:25.074Z,38.13
2022-11-14T16:42:28.496Z,38.33
2022-11-14T16:46:33.210Z,37.57
2022-11-14T16:50:39.451Z,38.47
2022-11-14T16:54:43.236Z,38.47
2022-11-14T16:58:47.094Z,37.17
2022-11-14T17:02:52.427Z,36.83
2022-11-14T17:06:56.530Z,36.67
2022-11-14T17:11:00.575Z,43.20
2022-11-14T17:15:06.117Z,36.53
2022-11-14T17:19:15.973Z,39.73
2022-11-14T17:23:21.313Z,40.60
2022-11-14T17:27:25.601Z,43.60
2022-11-14T17:31:33.721Z,40.20
2022-11-14T17:35:44.043Z,39.83
2022-11-14T17:39:48.544Z,39.60
2022-11-14T17:43:54.360Z,40.30
2022-11-14T17:47:59.835Z,37.70
2022-11-14T17:52:05.807Z,39.00
2022-11-14T17:56:13.661Z,42.70
2022-11-14T18:00:18.852Z,39.77
2022-11-14T18:04:23.129Z,42.87
2022-11-14T18:08:29.846Z,38.40
2022-11-14T18:12:34.404Z,44.10
2022-11-14T18:17:05.308Z,42.40
2022-11-14T18:21:09.059Z,41.47
2022-11-14T18:25:15.360Z,43.30
2022-11-14T18:29:19.315Z,43.73
2022-11-14T18:33:23.730Z,43.60
2022-11-14T18:37:28.036Z,44.77
2022-11-14T18:41:38.441Z,43.93
2022-11-14T18:45:42.217Z,46.07
2022-11-14T18:49:47.000Z,43.43
2022-11-14T18:53:52.274Z,43.27
2022-11-14T18:58:00.477Z,43.20
2022-11-14T19:02:11.011Z,42.33
2022-11-14T19:06:16.218Z,42.07
2022-11-14T19:10:21.457Z,43.30
2022-11-14T19:14:28.053Z,44.57
2022-11-14T19:18:33.690Z,44.93
2022-11-14T19:22:38.145Z,44.53
2022-11-14T19:26:43.720Z,43.90
2022-11-14T19:31:01.541Z,45.03
2022-11-14T19:35:07.447Z,43.57
2022-11-14T19:39:14.385Z,46.97
2022-11-14T19:43:22.247Z,50.57
2022-11-14T19:47:28.855Z,47.77
2022-11-14T19:51:34.404Z,51.10
2022-11-14T19:55:40.135Z,49.27
2022-11-14T19:59:45.614Z,52.43
2022-11-14T20:03:56.042Z,56.80
2022-11-14T20:07:59.817Z,51.60
2022-11-14T20:12:04.528Z,47.93
2022-11-14T20:16:15.106Z,51.70
2022-11-14T20:20:21.991Z,44.77
2022-11-14T20:24:26.143Z,46.93
2022-11-14T20:28:30.423Z,47.70
2022-11-14T20:32:34.836Z,44.77
2022-11-14T20:37:09.139Z,47.07
2022-11-14T20:41:19.776Z,48.20
2022-11-14T20:45:24.417Z,42.57
2022-11-14T20:49:28.703Z,44.90
2022-11-14T20:53:35.264Z,45.37
2022-11-14T20:57:39.884Z,46.37
2022-11-14T21:01:44.235Z,44.20
2022-11-14T21:05:48.278Z,47.57
2022-11-14T21:10:13.190Z,45.77
2022-11-14T21:14:16.820Z,45.87
2022-11-14T21:18:20.757Z,49.57
2022-11-14T21:22:24.273Z,47.10
2022-11-14T21:26:30.470Z,53.90
2022-11-14T21:30:34.807Z,48.40
2022-11-14T21:34:38.017Z,47.80
2022-11-14T21:38:41.630Z,48.50
2022-11-14T21:42:46.328Z,51.20
2022-11-14T21:46:49.993Z,47.20
2022-11-14T21:50:53.592Z,48.43
2022-11-14T21:54:56.854Z,44.80
2022-11-14T21:59:16.023Z,48.47
2022-11-14T22:03:42.890Z,45.70
2022-11-14T22:07:46.086Z,48.23
2022-11-14T22:11:49.684Z,50.27
2022-11-14T22:15:54.349Z,51.20
2022-11-14T22:19:57.629Z,51.00
2022-11-14T22:24:01.072Z,48.90
2022-11-14T22:28:04.415Z,51.03
2022-11-14T22:32:09.127Z,47.50
2022-11-14T22:36:14.741Z,49.87
2022-11-14T22:40:18.207Z,51.93
2022-11-14T22:44:21.480Z,51.27
2022-11-14T22:48:26.923Z,52.40
2022-11-14T22:52:31.139Z,52.97
2022-11-14T22:56:34.420Z,55.90
2022-11-14T23:00:37.701Z,53.37
2022-11-14T23:04:42.714Z,56.37
2022-11-14T23:08:46.852Z,51.33
2022-11-14T23:12:50.354Z,54.00
2022-11-14T23:16:53.834Z,52.73
2022-11-14T23:21:04.064Z,53.40
2022-11-14T23:25:08.390Z,54.00
2022-11-14T23:29:15.306Z,53.83
2022-11-14T23:33:18.789Z,57.00
2022-11-14T23:37:23.618Z,53.67
2022-11-14T23:41:27.240Z,55.53
2022-11-14T23:45:30.778Z,56.90
2022-11-14T23:49:34.241Z,53.07
2022-11-14T23:53:39.217Z,54.20
2022-11-14T23:57:42.674Z,52.77
